Time;durP1;ratioP1;P1;durP2;ratioP2;P2;SDS_P1;SDS_P2;PMS_P1;PMS_P2;Temp;Humidity;BMP_temperature;BMP_pressure;BME280_temperature;BME280_humidity;BME280_pressure;Samples;Min_cycle;Max_cycle;Signal;HPM_P1;HPM_P2
2023/09/02 00:00:13;;;;;;;14.47;14.07;;;18.10;99.90;;;;;;4868991;29;20195;-83
2023/09/02 00:02:51;;;;;;;14.40;14.00;;;18.10;99.90;;;;;;4872099;29;20503;-84
2023/09/02 00:05:34;;;;;;;14.43;13.93;;;18.00;99.90;;;;;;4870510;29;20479;-84
2023/09/02 00:08:11;;;;;;;14.60;14.10;;;18.00;99.90;;;;;;4875192;29;20471;-84
2023/09/02 00:10:47;;;;;;;14.73;14.18;;;17.90;95.30;;;;;;4877544;29;20466;-83
2023/09/02 00:13:22;;;;;;;14.60;14.20;;;17.80;1.00;;;;;;4874725;29;20273;-84
2023/09/02 00:16:03;;;;;;;14.50;14.10;;;17.90;1.00;;;;;;4882090;29;20551;-84
2023/09/02 00:18:45;;;;;;;14.73;14.23;;;17.90;99.90;;;;;;4869800;29;20464;-84
2023/09/02 00:21:32;;;;;;;14.57;14.00;;;17.80;99.90;;;;;;4876324;29;20463;-84
2023/09/02 00:24:15;;;;;;;14.70;14.20;;;17.80;99.90;;;;;;4875624;29;20487;-85
2023/09/02 00:26:59;;;;;;;15.00;14.50;;;17.70;1.00;;;;;;4873643;29;20811;-84
2023/09/02 00:29:48;;;;;;;14.90;14.40;;;17.70;99.90;;;;;;4866968;29;20203;-85
2023/09/02 00:32:33;;;;;;;14.43;13.93;;;17.70;1.00;;;;;;4871262;29;20464;-83
2023/09/02 00:35:11;;;;;;;14.97;14.13;;;17.70;95.30;;;;;;4874821;29;20535;-84
2023/09/02 00:37:41;;;;;;;14.40;13.80;;;17.60;75.80;;;;;;4871334;29;20460;-85
2023/09/02 00:40:22;;;;;;;14.90;14.40;;;17.60;99.90;;;;;;4872042;29;20485;-85
2023/09/02 00:43:27;;;;;;;14.20;13.70;;;17.60;99.90;;;;;;4872181;29;20473;-84
2023/09/02 00:46:07;;;;;;;15.50;14.90;;;17.60;1.00;;;;;;4873010;29;20472;-84
2023/09/02 00:48:58;;;;;;;14.90;14.40;;;17.50;99.90;;;;;;4873580;29;22284;-85
2023/09/02 00:51:30;;;;;;;14.77;14.17;;;17.50;99.90;;;;;;4862593;29;20463;-85
2023/09/02 00:54:06;;;;;;;15.83;15.00;;;17.50;37.00;;;;;;4885853;29;20494;-85
2023/09/02 00:56:48;;;;;;;14.80;14.30;;;17.50;99.90;;;;;;4869242;29;20471;-85
2023/09/02 00:59:31;;;;;;;14.70;14.20;;;17.50;99.90;;;;;;4868528;29;20527;-83
2023/09/02 01:02:17;;;;;;;14.40;13.80;;;17.40;1.00;;;;;;4862216;29;20233;-81
2023/09/02 01:04:54;;;;;;;14.70;14.00;;;17.40;99.90;;;;;;4868543;29;20470;-81
2023/09/02 01:07:35;;;;;;;14.97;14.30;;;17.40;1.00;;;;;;4866432;29;20590;-82
2023/09/02 01:10:15;;;;;;;14.02;13.63;;;17.40;99.90;;;;;;4866486;29;20460;-82
2023/09/02 01:12:55;;;;;;;14.80;14.13;;;17.50;99.90;;;;;;4861846;29;20260;-82
2023/09/02 01:15:48;;;;;;;15.40;14.33;;;17.50;1.00;;;;;;4881083;29;20286;-82
2023/09/02 01:18:22;;;;;;;15.50;14.70;;;17.40;99.90;;;;;;4866649;29;20490;-82
2023/09/02 01:21:37;;;;;;;14.47;14.07;;;17.40;1.00;;;;;;4866146;29;20903;-82
2023/09/02 01:24:32;;;;;;;14.60;14.00;;;17.40;1.00;;;;;;4866817;29;20520;-82
2023/09/02 01:27:23;;;;;;;14.10;13.63;;;17.40;1.00;;;;;;4870014;29;20520;-83
2023/09/02 01:30:07;;;;;;;13.90;13.50;;;17.40;1.00;;;;;;4868151;29;20456;-83
2023/09/02 01:32:43;;;;;;;14.37;13.83;;;17.40;1.00;;;;;;4868317;29;20493;-84
2023/09/02 01:35:20;;;;;;;13.67;13.10;;;17.30;99.90;;;;;;4864124;29;20968;-83
2023/09/02 01:37:56;;;;;;;14.50;13.80;;;17.40;1.00;;;;;;4880137;29;20589;-83
2023/09/02 01:40:50;;;;;;;13.48;13.07;;;17.30;99.90;;;;;;4870772;29;20467;-82
2023/09/02 01:43:35;;;;;;;14.83;14.23;;;17.30;1.00;;;;;;4871336;29;20250;-83
2023/09/02 01:46:06;;;;;;;14.13;13.67;;;17.20;1.00;;;;;;4867994;29;20548;-84
2023/09/02 01:48:50;;;;;;;14.30;13.80;;;17.20;99.90;;;;;;4870161;29;20462;-84
2023/09/02 01:51:33;;;;;;;14.30;13.80;;;17.20;93.70;;;;;;4866716;29;20540;-84
2023/09/02 01:54:06;;;;;;;14.73;14.23;;;17.20;1.00;;;;;;4870636;29;20482;-84
2023/09/02 01:56:47;;;;;;;14.67;14.07;;;17.20;99.90;;;;;;4860761;29;20467;-84
2023/09/02 01:59:22;;;;;;;14.33;13.83;;;17.10;99.90;;;;;;4868982;29;20891;-84
2023/09/02 02:01:52;;;;;;;14.90;14.40;;;17.10;14.80;;;;;;4867872;29;20466;-84
2023/09/02 02:04:39;;;;;;;14.53;14.03;;;17.10;44.20;;;;;;4866885;29;20488;-84
2023/09/02 02:07:22;;;;;;;15.67;14.97;;;17.10;1.00;;;;;;4863889;29;20501;-84
2023/09/02 02:10:00;;;;;;;14.70;14.10;;;17.10;99.90;;;;;;4870718;29;20463;-84
2023/09/02 02:12:41;;;;;;;14.10;13.67;;;17.00;99.90;;;;;;4872077;29;20482;-83
2023/09/02 02:15:23;;;;;;;14.73;14.13;;;17.00;1.00;;;;;;4879929;29;21069;-84
2023/09/02 02:18:16;;;;;;;14.73;13.93;;;16.90;40.70;;;;;;4865250;29;20463;-83
2023/09/02 02:21:00;;;;;;;14.60;14.10;;;16.90;99.90;;;;;;4871227;29;20542;-84
2023/09/02 02:23:35;;;;;;;14.83;14.33;;;16.90;99.90;;;;;;4870845;29;21664;-83
2023/09/02 02:26:23;;;;;;;15.07;14.57;;;16.90;1.00;;;;;;4872930;29;20553;-83
2023/09/02 02:29:08;;;;;;;;;;;;;;;;;;;;;
2023/09/02 02:31:47;;;;;;;14.23;13.83;;;16.90;99.90;;;;;;4886102;29;20296;-83
2023/09/02 02:34:21;;;;;;;14.50;13.97;;;16.90;99.90;;;;;;4867721;29;20576;-83
2023/09/02 02:36:51;;;;;;;14.33;13.73;;;16.90;1.00;;;;;;4862587;29;20933;-84
2023/09/02 02:39:22;;;;;;;15.03;14.40;;;16.90;1.00;;;;;;4867723;29;20473;-84
2023/09/02 02:42:03;;;;;;;15.10;14.60;;;16.80;1.00;;;;;;4879563;29;20478;-84
2023/09/02 02:44:46;;;;;;;14.90;14.20;;;16.80;99.90;;;;;;4871616;29;20497;-84
2023/09/02 02:47:27;;;;;;;14.43;13.90;;;16.80;59.90;;;;;;4871781;29;20470;-83
2023/09/02 02:50:03;;;;;;;14.53;13.73;;;16.90;99.90;;;;;;4877291;29;21313;-85
2023/09/02 02:52:41;;;;;;;14.95;14.15;;;16.80;1.00;;;;;;4866547;29;20978;-83
2023/09/02 02:55:26;;;;;;;14.67;14.17;;;16.90;99.90;;;;;;4870227;29;20213;-84
2023/09/02 02:57:57;;;;;;;14.30;13.80;;;16.90;1.00;;;;;;4863376;29;20462;-84
2023/09/02 03:00:41;;;;;;;14.07;13.60;;;16.70;1.00;;;;;;4884857;29;20591;-84
2023/09/02 03:03:30;;;;;;;14.10;13.60;;;16.70;99.90;;;;;;4869004;29;20546;-83
2023/09/02 03:06:18;;;;;;;14.17;13.50;;;16.70;48.00;;;;;;4869778;29;21005;-83
2023/09/02 03:08:49;;;;;;;14.23;13.80;;;16.70;1.00;;;;;;4869879;29;20530;-84
2023/09/02 03:11:29;;;;;;;14.33;13.80;;;16.70;1.00;;;;;;4868366;29;20553;-84
2023/09/02 03:14:00;;;;;;;14.07;13.57;;;16.70;1.00;;;;;;4871152;29;20569;-84
2023/09/02 03:16:41;;;;;;;14.30;13.80;;;16.60;99.90;;;;;;4868876;29;20463;-84
2023/09/02 03:19:17;;;;;;;14.47;13.80;;;16.70;1.00;;;;;;4867058;29;20809;-84
2023/09/02 03:22:02;;;;;;;14.13;13.73;;;16.70;99.90;;;;;;4882518;29;20477;-84
2023/09/02 03:24:37;;;;;;;14.27;13.87;;;16.70;99.90;;;;;;4864624;29;20552;-85
2023/09/02 03:27:18;;;;;;;14.53;13.80;;;16.70;1.00;;;;;;4872945;29;20514;-84
2023/09/02 03:29:59;;;;;;;14.32;13.82;;;16.60;99.90;;;;;;4867661;29;20465;-84
2023/09/02 03:32:31;;;;;;;14.20;13.70;;;16.70;1.00;;;;;;4867365;29;20503;-84
2023/09/02 03:35:17;;;;;;;14.03;13.40;;;16.70;1.00;;;;;;4869029;29;22404;-84
2023/09/02 03:37:51;;;;;;;13.93;13.53;;;16.60;1.00;;;;;;4870376;29;20546;-83
2023/09/02 03:40:28;;;;;;;14.20;13.80;;;16.60;99.90;;;;;;4867286;29;21013;-84
2023/09/02 03:43:00;;;;;;;14.40;13.90;;;16.60;99.90;;;;;;4868397;29;20513;-82
2023/09/02 03:45:37;;;;;;;14.05;13.65;;;16.60;1.00;;;;;;4868353;29;21035;-83
2023/09/02 03:48:14;;;;;;;14.07;13.57;;;16.50;1.00;;;;;;4865828;29;20872;-84
2023/09/02 03:51:05;;;;;;;15.30;14.10;;;16.50;1.00;;;;;;4870235;29;20469;-84
2023/09/02 03:53:44;;;;;;;14.50;13.90;;;16.40;93.30;;;;;;4868790;29;20571;-84
2023/09/02 03:56:23;;;;;;;14.23;13.60;;;16.50;99.90;;;;;;4882840;29;20987;-84
2023/09/02 04:01:54;;;;;;;14.30;13.80;;;16.50;1.00;;;;;;4864165;29;20481;-84
2023/09/02 04:04:27;;;;;;;14.60;14.03;;;16.50;1.00;;;;;;4870374;29;20620;-83
2023/09/02 04:07:06;;;;;;;14.50;13.97;;;16.50;1.00;;;;;;4871033;29;20467;-85
2023/09/02 04:09:43;;;;;;;14.50;13.90;;;16.50;1.00;;;;;;4871633;29;21145;-84
2023/09/02 04:12:17;;;;;;;14.97;14.43;;;16.50;99.90;;;;;;4867124;29;20494;-85
2023/09/02 04:14:54;;;;;;;13.80;13.40;;;16.50;1.00;;;;;;4871340;29;20481;-84
2023/09/02 04:17:28;;;;;;;14.57;14.00;;;16.50;1.00;;;;;;4871737;29;20647;-85
2023/09/02 04:20:04;;;;;;;14.20;13.80;;;16.40;99.90;;;;;;4869497;29;20480;-83
2023/09/02 04:23:02;;;;;;;14.00;13.60;;;16.40;1.00;;;;;;4866387;29;20509;-84
2023/09/02 04:25:38;;;;;;;14.90;14.50;;;16.40;1.00;;;;;;4869428;29;20464;-83
2023/09/02 04:28:10;;;;;;;14.30;13.90;;;16.40;99.90;;;;;;4869676;29;20226;-84
2023/09/02 04:30:55;;;;;;;15.53;14.57;;;16.50;99.90;;;;;;4875003;29;20209;-83
2023/09/02 04:33:28;;;;;;;14.60;14.20;;;16.40;99.90;;;;;;4867653;29;20478;-84
2023/09/02 04:36:09;;;;;;;15.23;14.63;;;16.50;1.00;;;;;;4868800;29;20471;-83
2023/09/02 04:38:51;;;;;;;14.97;14.47;;;16.50;99.90;;;;;;4858809;29;20469;-84
2023/09/02 04:41:37;;;;;;;15.40;14.90;;;16.40;99.90;;;;;;4870150;29;20462;-85
2023/09/02 04:44:18;;;;;;;14.30;13.90;;;16.40;99.90;;;;;;4867273;29;20489;-84
2023/09/02 04:46:52;;;;;;;14.07;13.67;;;16.40;1.00;;;;;;4871124;29;20458;-85
2023/09/02 04:49:24;;;;;;;14.70;14.00;;;16.40;1.00;;;;;;4870177;29;20474;-85
2023/09/02 04:52:03;;;;;;;14.07;13.67;;;16.30;99.90;;;;;;4866717;29;20352;-85
2023/09/02 04:54:48;;;;;;;14.70;14.17;;;16.30;99.90;;;;;;4876465;29;20740;-84
2023/09/02 04:57:22;;;;;;;14.63;13.90;;;16.30;1.00;;;;;;4870980;29;20467;-83
2023/09/02 05:00:09;;;;;;;14.63;14.13;;;16.40;1.00;;;;;;4868075;29;20468;-84
2023/09/02 05:02:49;;;;;;;14.20;13.80;;;16.40;1.00;;;;;;4860146;29;21066;-83
2023/09/02 05:05:21;;;;;;;14.30;13.70;;;16.40;99.90;;;;;;4851272;29;20485;-85
2023/09/02 05:08:00;;;;;;;15.25;14.48;;;16.30;52.20;;;;;;4869403;29;20815;-84
2023/09/02 05:10:37;;;;;;;14.70;14.10;;;16.40;35.30;;;;;;4867879;29;20216;-85
2023/09/02 05:13:11;;;;;;;14.80;14.30;;;16.40;99.90;;;;;;4867643;29;20984;-85
2023/09/02 05:15:50;;;;;;;14.38;13.77;;;16.40;1.00;;;;;;4867313;29;20204;-84
2023/09/02 05:18:22;;;;;;;15.07;14.57;;;16.50;88.30;;;;;;4870057;29;20210;-85
2023/09/02 05:21:07;;;;;;;15.83;14.77;;;16.50;99.90;;;;;;4868636;29;20873;-84
2023/09/02 05:23:44;;;;;;;14.50;14.00;;;16.50;1.00;;;;;;4869665;29;20474;-85
2023/09/02 05:26:19;;;;;;;14.40;13.90;;;16.40;99.90;;;;;;4874570;29;20466;-84
2023/09/02 05:28:58;;;;;;;14.40;14.00;;;16.50;99.90;;;;;;4865858;29;20494;-84
2023/09/02 05:31:43;;;;;;;14.20;13.80;;;16.50;99.90;;;;;;4874002;29;20578;-85
2023/09/02 05:34:11;;;;;;;15.30;14.80;;;16.50;99.90;;;;;;4873055;29;20494;-84
2023/09/02 05:36:43;;;;;;;15.63;15.03;;;16.60;1.00;;;;;;4871852;29;20465;-85
2023/09/02 05:39:33;;;;;;;15.20;14.70;;;16.50;1.00;;;;;;4870855;29;20455;-85
2023/09/02 05:42:22;;;;;;;15.00;14.40;;;16.50;55.20;;;;;;4871651;29;20551;-84
2023/09/02 05:44:59;;;;;;;14.18;13.77;;;16.50;99.90;;;;;;4869541;29;20950;-84
2023/09/02 05:47:39;;;;;;;14.57;14.03;;;16.60;99.90;;;;;;4861802;29;20211;-86
2023/09/02 05:50:21;;;;;;;14.17;13.77;;;16.60;99.90;;;;;;4873618;29;20579;-84
2023/09/02 05:52:54;;;;;;;14.20;13.63;;;16.60;1.00;;;;;;4874602;29;20497;-84
2023/09/02 05:55:27;;;;;;;14.40;14.00;;;16.60;99.90;;;;;;4870141;29;20454;-84
2023/09/02 05:58:11;;;;;;;14.97;14.33;;;16.60;99.90;;;;;;4871186;29;20538;-84
2023/09/02 06:00:54;;;;;;;15.10;14.47;;;16.60;1.00;;;;;;4870113;29;20485;-84
2023/09/02 06:03:43;;;;;;;15.00;14.43;;;16.80;1.00;;;;;;4868914;29;20602;-84
2023/09/02 06:06:25;;;;;;;14.80;14.27;;;17.00;99.90;;;;;;4869247;29;20475;-82
2023/09/02 06:09:03;;;;;;;15.20;14.70;;;17.20;99.90;;;;;;4862039;29;20492;-80
2023/09/02 06:11:50;;;;;;;16.13;15.47;;;17.40;99.90;;;;;;4855234;29;20586;-80
2023/09/02 06:14:32;;;;;;;14.83;14.37;;;17.60;1.00;;;;;;4863128;29;21297;-81
2023/09/02 06:17:30;;;;;;;15.20;14.50;;;17.70;16.10;;;;;;4861315;29;20518;-81
2023/09/02 06:20:20;;;;;;;15.63;14.97;;;17.90;1.00;;;;;;4858666;29;20554;-81
2023/09/02 06:26:25;;;;;;;16.30;15.40;;;18.20;1.00;;;;;;4874084;29;20471;-81
2023/09/02 06:29:11;;;;;;;15.30;14.70;;;18.30;1.00;;;;;;4874734;29;20482;-80
2023/09/02 06:32:12;;;;;;;;;;;;;;;;;;;;;
2023/09/02 06:34:53;;;;;;;15.73;14.90;;;18.30;99.90;;;;;;4859462;29;20491;-80
2023/09/02 06:37:32;;;;;;;15.85;15.15;;;18.30;99.90;;;;;;4864864;29;20973;-81
2023/09/02 06:40:20;;;;;;;15.47;14.87;;;18.40;99.90;;;;;;4861951;29;20226;-81
2023/09/02 06:43:15;;;;;;;15.80;15.10;;;18.50;1.00;;;;;;4862518;29;20696;-81
2023/09/02 06:46:24;;;;;;;16.27;15.50;;;18.50;1.00;;;;;;4864706;29;20459;-81
2023/09/02 06:49:14;;;;;;;19.73;18.53;;;18.50;99.90;;;;;;4866264;29;20499;-80
2023/09/02 06:52:02;;;;;;;15.93;15.37;;;18.60;1.00;;;;;;4857077;29;20472;-81
2023/09/02 06:54:45;;;;;;;16.52;15.93;;;18.60;99.90;;;;;;4864515;29;20458;-80
2023/09/02 06:57:25;;;;;;;15.77;15.10;;;18.60;99.90;;;;;;4866097;29;20203;-80
2023/09/02 07:00:13;;;;;;;15.23;14.73;;;18.60;99.90;;;;;;4860704;29;20203;-81
2023/09/02 07:02:52;;;;;;;14.93;14.43;;;18.70;99.90;;;;;;4858895;29;20563;-81
2023/09/02 07:05:39;;;;;;;15.30;14.73;;;18.70;1.00;;;;;;4861870;29;21021;-80
2023/09/02 07:08:33;;;;;;;15.37;14.77;;;18.70;99.90;;;;;;4862154;29;20491;-81
2023/09/02 07:11:18;;;;;;;16.27;15.50;;;18.80;99.90;;;;;;4860425;29;20752;-81
2023/09/02 07:13:58;;;;;;;15.80;15.20;;;18.80;99.90;;;;;;4864525;29;20847;-80
2023/09/02 07:16:37;;;;;;;16.13;15.40;;;18.80;99.90;;;;;;4863020;29;20551;-81
2023/09/02 07:19:36;;;;;;;16.13;15.43;;;18.90;1.00;;;;;;4863377;29;20451;-83
2023/09/02 07:22:26;;;;;;;15.27;14.77;;;19.00;1.00;;;;;;4864434;29;20499;-81
2023/09/02 07:25:19;;;;;;;15.07;14.50;;;19.10;1.00;;;;;;4859153;29;20807;-82
2023/09/02 07:28:11;;;;;;;16.00;15.40;;;19.20;1.00;;;;;;4875892;29;20475;-81
2023/09/02 07:30:58;;;;;;;16.00;15.30;;;19.20;99.90;;;;;;4862849;29;20476;-82
2023/09/02 07:33:48;;;;;;;15.63;15.03;;;19.30;1.00;;;;;;4865116;29;21072;-82
2023/09/02 07:36:29;;;;;;;15.70;15.20;;;19.30;99.90;;;;;;4863095;29;21064;-81
2023/09/02 07:39:45;;;;;;;;;;;;;;;;;;;;;
2023/09/02 07:42:20;;;;;;;15.70;15.00;;;19.50;99.90;;;;;;4862760;29;20558;-79
2023/09/02 07:45:19;;;;;;;15.40;14.90;;;19.70;1.00;;;;;;4866476;29;20203;-82
2023/09/02 07:50:44;;;;;;;15.67;15.03;;;20.10;1.00;;;;;;4861715;29;20499;-83
2023/09/02 07:53:30;;;;;;;15.18;14.77;;;20.20;1.00;;;;;;4865291;29;20522;-82
2023/09/02 07:56:25;;;;;;;16.00;15.43;;;20.30;99.90;;;;;;4866972;29;20199;-82
2023/09/02 07:59:33;;;;;;;15.20;14.70;;;20.40;99.90;;;;;;4862872;29;20466;-82
2023/09/02 08:05:20;;;;;;;15.33;14.83;;;20.50;43.10;;;;;;4876522;29;20530;-81
2023/09/02 08:08:13;;;;;;;15.50;15.10;;;20.60;99.90;;;;;;4863112;29;20554;-81
2023/09/02 08:11:17;;;;;;;15.03;14.63;;;20.60;99.90;;;;;;4862441;29;20472;-82
2023/09/02 08:14:06;;;;;;;15.90;15.30;;;20.60;99.90;;;;;;4862005;29;21084;-81
2023/09/02 08:16:56;;;;;;;15.30;14.90;;;20.70;1.00;;;;;;4865316;29;20211;-81
2023/09/02 08:19:49;;;;;;;15.98;15.48;;;20.80;64.80;;;;;;4849935;29;20526;-80
2023/09/02 08:22:28;;;;;;;16.67;15.82;;;20.90;99.90;;;;;;4865711;29;20223;-80
2023/09/02 08:25:20;;;;;;;16.57;16.07;;;20.90;1.00;;;;;;4870606;29;20194;-81
2023/09/02 08:28:17;;;;;;;15.63;15.13;;;21.10;1.00;;;;;;4869706;29;20467;-81
2023/09/02 08:31:06;;;;;;;15.43;15.03;;;21.10;1.00;;;;;;4868087;29;20547;-81
2023/09/02 08:33:43;;;;;;;15.80;15.30;;;21.10;1.00;;;;;;4866206;29;20494;-81
2023/09/02 08:36:19;;;;;;;15.97;15.30;;;21.10;1.00;;;;;;4888640;29;20483;-81
2023/09/02 08:42:19;;;;;;;15.30;14.77;;;21.20;99.90;;;;;;4870305;29;20460;-81
2023/09/02 08:45:18;;;;;;;14.73;14.33;;;21.30;99.90;;;;;;4873612;29;20467;-82
2023/09/02 08:48:08;;;;;;;15.07;14.68;;;21.40;99.90;;;;;;4870446;29;20471;-81
2023/09/02 08:50:49;;;;;;;15.10;14.60;;;21.40;99.90;;;;;;4874308;29;20724;-81
2023/09/02 08:53:28;;;;;;;15.03;14.57;;;21.50;99.90;;;;;;4878235;29;20265;-81
2023/09/02 08:56:10;;;;;;;15.53;15.00;;;21.60;99.90;;;;;;4874256;29;20463;-81
2023/09/02 08:59:02;;;;;;;14.70;14.30;;;21.80;99.90;;;;;;4871813;29;20472;-80
2023/09/02 09:01:53;;;;;;;14.60;14.20;;;21.80;99.90;;;;;;4854393;29;20469;-82
2023/09/02 09:04:38;;;;;;;14.83;14.33;;;21.80;99.90;;;;;;4876209;29;20490;-83
2023/09/02 09:07:13;;;;;;;15.23;14.53;;;21.70;87.40;;;;;;4872648;29;20483;-82
2023/09/02 09:10:06;;;;;;;14.37;13.77;;;21.70;63.20;;;;;;4865373;29;21005;-82
2023/09/02 09:12:47;;;;;;;14.77;14.30;;;21.80;1.00;;;;;;4851730;29;21012;-82
2023/09/02 09:15:36;;;;;;;13.97;13.57;;;21.80;1.00;;;;;;4866592;29;20322;-81
2023/09/02 09:18:24;;;;;;;14.10;13.70;;;21.90;1.00;;;;;;4867347;29;20454;-82
2023/09/02 09:21:27;;;;;;;14.40;13.70;;;21.90;1.00;;;;;;4865048;29;20604;-81
2023/09/02 09:24:40;;;;;;;14.10;13.60;;;22.00;1.00;;;;;;4857617;29;20494;-84
2023/09/02 09:27:28;;;;;;;13.87;13.47;;;22.10;1.00;;;;;;4868146;29;20447;-86
2023/09/02 09:30:37;;;;;;;13.90;13.50;;;22.20;1.00;;;;;;4865316;29;20525;-86
2023/09/02 09:33:30;;;;;;;13.37;13.00;;;22.20;1.00;;;;;;4869282;29;20487;-84
2023/09/02 09:36:29;;;;;;;13.82;13.43;;;22.10;1.00;;;;;;4873544;29;20460;-86
2023/09/02 09:39:37;;;;;;;13.97;13.40;;;22.30;1.00;;;;;;4869503;29;20285;-85
2023/09/02 09:45:39;;;;;;;13.57;13.17;;;22.40;1.00;;;;;;4892357;29;20477;-85
2023/09/02 09:48:45;;;;;;;13.80;13.23;;;22.40;1.00;;;;;;4896284;29;20826;-84
2023/09/02 09:55:38;;;;;;;13.05;12.75;;;22.50;1.00;;;;;;4872518;29;20471;-85
2023/09/02 10:02:14;;;;;;;13.30;12.90;;;22.70;1.00;;;;;;4872891;29;20463;-84
2023/09/02 10:09:06;;;;;;;12.93;12.52;;;22.80;99.90;;;;;;4875354;29;20471;-85
2023/09/02 10:15:55;;;;;;;12.87;12.47;;;23.00;99.90;;;;;;4868188;29;20539;-85
2023/09/02 10:22:03;;;;;;;;;;;;;;;;;;;;;
2023/09/02 10:25:19;;;;;;;13.23;12.73;;;23.00;99.90;;;;;;4968764;23;20512;-86
2023/09/02 10:28:59;;;;;;;12.77;12.47;;;23.10;99.90;;;;;;4920673;29;20461;-85
2023/09/02 10:32:52;;;;;;;13.20;12.90;;;23.10;99.90;;;;;;4942916;29;21127;-85
2023/09/02 10:36:28;;;;;;;13.10;12.70;;;23.10;99.90;;;;;;4947145;28;20482;-86
2023/09/02 10:40:15;;;;;;;13.40;12.90;;;23.10;99.90;;;;;;4936114;28;20679;-86
2023/09/02 10:44:05;;;;;;;;;;;;;;;;;;;;;
2023/09/02 10:47:14;;;;;;;13.37;12.90;;;23.10;99.90;;;;;;4896611;29;20470;-84
2023/09/02 10:50:29;;;;;;;11.80;11.40;;;23.30;99.90;;;;;;4893898;28;20474;-86
2023/09/02 10:57:58;;;;;;;12.55;12.18;;;23.50;99.90;;;;;;4932595;28;20529;-85
2023/09/02 11:00:55;;;;;;;12.03;11.73;;;23.50;99.90;;;;;;4942273;28;20215;-85
2023/09/02 11:04:20;;;;;;;12.30;12.00;;;23.50;99.90;;;;;;4961932;28;20472;-85
2023/09/02 11:07:35;;;;;;;12.70;12.40;;;23.60;99.90;;;;;;4955434;28;21158;-87
2023/09/02 11:14:32;;;;;;;12.87;12.57;;;23.50;99.90;;;;;;4957519;28;20486;-86
2023/09/02 11:17:35;;;;;;;12.40;11.90;;;23.60;99.90;;;;;;4959589;28;20464;-84
2023/09/02 11:20:55;;;;;;;12.43;12.03;;;23.60;99.90;;;;;;4958344;28;20470;-85
2023/09/02 11:23:47;;;;;;;11.90;11.60;;;23.50;99.90;;;;;;4963465;28;20509;-82
2023/09/02 11:27:03;;;;;;;11.85;11.55;;;23.70;99.90;;;;;;4961470;28;20455;-84
2023/09/02 11:30:08;;;;;;;11.90;11.50;;;23.60;99.90;;;;;;4965157;28;20200;-84
2023/09/02 11:33:07;;;;;;;12.40;12.10;;;23.70;99.90;;;;;;4963358;28;20499;-84
2023/09/02 11:35:47;;;;;;;12.70;12.30;;;23.70;99.90;;;;;;4951236;28;20549;-85
2023/09/02 11:38:40;;;;;;;12.77;12.37;;;23.80;99.90;;;;;;4968634;28;20211;-85
2023/09/02 11:41:33;;;;;;;12.87;12.47;;;23.80;99.90;;;;;;4964516;28;20525;-84
2023/09/02 11:44:46;;;;;;;11.03;10.83;;;23.80;99.90;;;;;;4966749;28;20893;-83
2023/09/02 11:47:40;;;;;;;11.23;10.93;;;23.90;99.90;;;;;;4962825;28;20460;-84
2023/09/02 11:50:54;;;;;;;11.60;11.20;;;23.90;99.90;;;;;;4957204;28;20563;-84
2023/09/02 11:54:06;;;;;;;11.70;11.30;;;24.00;99.90;;;;;;4960074;28;20221;-82
2023/09/02 11:57:12;;;;;;;11.60;11.30;;;24.00;99.90;;;;;;4957521;28;20456;-85
2023/09/02 12:03:42;;;;;;;10.87;10.57;;;24.10;99.90;;;;;;4957387;28;20363;-85
2023/09/02 12:06:33;;;;;;;11.25;10.85;;;24.10;99.90;;;;;;4956336;28;20521;-85
2023/09/02 12:09:54;;;;;;;11.87;11.47;;;24.20;99.90;;;;;;4948169;28;20205;-84
2023/09/02 12:12:55;;;;;;;10.47;10.17;;;24.20;99.90;;;;;;4955298;28;20787;-85
2023/09/02 12:15:46;;;;;;;11.00;10.70;;;24.10;99.90;;;;;;4953860;28;20472;-84
2023/09/02 12:18:36;;;;;;;10.87;10.57;;;24.20;99.90;;;;;;4955152;28;20452;-84
2023/09/02 12:21:36;;;;;;;11.10;10.80;;;24.20;99.90;;;;;;4935551;28;20506;-85
2023/09/02 12:24:56;;;;;;;11.73;10.97;;;24.20;99.90;;;;;;4946071;28;20505;-84
2023/09/02 12:28:19;;;;;;;10.80;10.50;;;24.30;99.90;;;;;;4956342;28;20476;-84
2023/09/02 12:31:43;;;;;;;10.90;10.60;;;24.20;99.90;;;;;;4898939;28;21099;-86
2023/09/02 12:37:47;;;;;;;10.63;10.37;;;24.30;99.90;;;;;;4954097;28;20467;-87
2023/09/02 12:41:32;;;;;;;10.93;10.63;;;24.30;99.90;;;;;;4877942;29;20475;-88
2023/09/02 12:48:54;;;;;;;11.07;10.77;;;24.30;99.90;;;;;;4931884;28;20510;-89
2023/09/02 12:52:59;;;;;;;10.93;10.63;;;24.30;99.90;;;;;;4943319;28;20487;-88
2023/09/02 12:55:57;;;;;;;11.03;10.53;;;24.30;99.90;;;;;;4940207;28;20984;-87
2023/09/02 12:58:52;;;;;;;10.60;10.17;;;24.40;99.90;;;;;;4964628;28;20447;-87
2023/09/02 13:01:42;;;;;;;10.10;9.80;;;24.40;99.90;;;;;;4958241;28;20856;-87
2023/09/02 13:04:41;;;;;;;9.90;9.70;;;24.60;99.90;;;;;;4963561;28;20483;-85
2023/09/02 13:07:44;;;;;;;9.70;9.50;;;24.70;99.90;;;;;;4943251;28;20966;-87
2023/09/02 13:10:59;;;;;;;10.40;10.00;;;24.80;99.90;;;;;;4976871;28;20484;-88
2023/09/02 13:14:14;;;;;;;10.40;10.13;;;24.90;99.90;;;;;;4976347;28;20491;-90
2023/09/02 13:17:07;;;;;;;10.17;9.97;;;25.00;99.90;;;;;;4970956;28;20304;-83
2023/09/02 13:20:13;;;;;;;10.30;10.00;;;25.00;99.90;;;;;;4967888;28;20436;-83
2023/09/02 13:24:02;;;;;;;10.33;9.83;;;24.90;99.90;;;;;;4970959;28;20526;-86
2023/09/02 13:26:55;;;;;;;9.98;9.55;;;24.80;99.90;;;;;;4970555;28;21125;-85
2023/09/02 13:32:54;;;;;;;9.80;9.27;;;25.00;99.90;;;;;;4960176;28;20564;-87
2023/09/02 13:35:52;;;;;;;9.47;9.17;;;25.00;99.90;;;;;;4984647;28;20458;-87
2023/09/02 13:38:55;;;;;;;9.60;9.40;;;25.10;99.90;;;;;;4960926;28;20556;-84
2023/09/02 13:42:04;;;;;;;9.30;9.10;;;25.10;99.90;;;;;;4934474;28;20254;-85
2023/09/02 13:45:47;;;;;;;9.70;9.40;;;25.10;99.90;;;;;;4966940;28;20420;-86
2023/09/02 13:55:55;;;;;;;10.57;10.17;;;25.20;99.90;;;;;;4907480;29;20621;-86
2023/09/02 13:58:58;;;;;;;9.57;9.27;;;25.20;99.90;;;;;;4908754;29;20463;-86
2023/09/02 14:02:15;;;;;;;10.23;9.90;;;25.10;99.90;;;;;;4904644;29;20473;-85
2023/09/02 14:09:05;;;;;;;9.93;9.13;;;25.10;99.90;;;;;;4882293;29;20489;-85
2023/09/02 14:12:26;;;;;;;9.67;9.37;;;25.20;99.90;;;;;;4894089;29;20454;-84
2023/09/02 14:19:20;;;;;;;10.57;10.27;;;25.30;99.90;;;;;;4805374;29;20563;-86
2023/09/02 14:28:36;;;;;;;9.70;9.40;;;25.20;99.90;;;;;;4833306;29;20274;-86
2023/09/02 14:31:43;;;;;;;10.07;9.77;;;25.20;99.90;;;;;;4823002;29;20972;-86
2023/09/02 14:35:03;;;;;;;9.90;9.60;;;25.20;99.90;;;;;;4840592;29;20512;-86
2023/09/02 14:45:57;;;;;;;9.90;9.50;;;25.20;99.90;;;;;;4817997;29;21008;-85
2023/09/02 14:49:23;;;;;;;9.10;8.80;;;25.30;99.90;;;;;;4840636;29;20315;-86
2023/09/02 14:52:55;;;;;;;8.90;8.60;;;25.30;99.90;;;;;;4837204;29;20480;-86
2023/09/02 14:56:07;;;;;;;8.77;8.27;;;25.30;99.90;;;;;;4845207;29;20215;-86
2023/09/02 14:59:09;;;;;;;8.83;8.63;;;25.40;99.90;;;;;;4896964;29;20458;-85
2023/09/02 15:02:20;;;;;;;9.60;9.20;;;25.40;99.90;;;;;;4895594;29;20453;-84
2023/09/02 15:08:59;;;;;;;;;;;;;;;;;;;;;
2023/09/02 15:12:47;;;;;;;9.57;9.27;;;25.40;99.90;;;;;;4884158;29;20532;-86
2023/09/02 15:18:55;;;;;;;9.10;8.90;;;25.40;99.90;;;;;;4893191;29;20467;-88
2023/09/02 15:25:41;;;;;;;8.80;8.60;;;25.40;99.90;;;;;;4830669;29;20215;-85
2023/09/02 15:29:10;;;;;;;9.00;8.70;;;25.50;99.90;;;;;;4896700;29;20461;-85
2023/09/02 15:35:40;;;;;;;8.88;8.57;;;25.50;99.90;;;;;;4891381;29;20532;-85
2023/09/02 15:39:17;;;;;;;8.27;8.07;;;25.50;99.90;;;;;;4891085;29;20825;-84
2023/09/02 15:42:29;;;;;;;8.50;8.20;;;25.50;99.90;;;;;;4887646;29;20467;-83
2023/09/02 15:48:36;;;;;;;9.30;8.80;;;25.40;99.90;;;;;;4889326;29;20216;-84
2023/09/02 15:51:09;;;;;;;9.30;8.90;;;25.40;99.90;;;;;;4889366;29;20199;-84
2023/09/02 15:53:53;;;;;;;8.63;8.23;;;25.40;99.90;;;;;;4888622;29;21156;-86
2023/09/02 15:56:44;;;;;;;8.40;8.10;;;25.30;99.90;;;;;;4886433;29;20491;-85
2023/09/02 15:59:29;;;;;;;8.13;7.93;;;25.30;99.90;;;;;;4893286;29;20450;-86
2023/09/02 16:05:13;;;;;;;7.27;6.97;;;25.20;99.90;;;;;;4923343;29;20490;-86
2023/09/02 16:08:34;;;;;;;7.30;7.10;;;25.20;99.90;;;;;;4920141;29;20492;-85
2023/09/02 16:11:34;;;;;;;7.23;7.03;;;25.20;99.90;;;;;;4924791;29;20454;-87
2023/09/02 16:18:13;;;;;;;8.20;7.90;;;25.10;99.90;;;;;;4904758;29;20761;-86
2023/09/02 16:20:58;;;;;;;8.30;8.00;;;25.10;99.90;;;;;;4887059;29;20488;-85
2023/09/02 16:23:53;;;;;;;7.90;7.60;;;25.10;99.90;;;;;;4896033;29;21015;-84
2023/09/02 16:26:47;;;;;;;8.33;8.13;;;25.10;99.90;;;;;;4883878;29;20458;-85
2023/09/02 16:29:37;;;;;;;8.90;8.60;;;25.10;99.90;;;;;;4901487;29;20477;-84
2023/09/02 16:32:42;;;;;;;8.70;8.40;;;25.00;99.90;;;;;;4899696;29;20640;-85
2023/09/02 16:35:47;;;;;;;8.60;8.20;;;25.00;99.90;;;;;;4888278;29;20493;-85